Time;durP1;ratioP1;P1;durP2;ratioP2;P2;SDS_P1;SDS_P2;PMS_P1;PMS_P2;Temp;Humidity;BMP_temperature;BMP_pressure;BME280_temperature;BME280_humidity;BME280_pressure;Samples;Min_cycle;Max_cycle;Signal;HPM_P1;HPM_P2
2022/04/02 00:00:50;;;;;;;;;;;;;;;22.11;40.19;93428.69;2046024;29;1764;-76
2022/04/02 00:01:52;;;;;;;;;;;;;;;22.11;40.12;93420.66;2040691;29;1144;-71
2022/04/02 00:02:54;;;;;;;;;;;;;;;22.12;40.15;93439.13;2046598;29;1556;-75
2022/04/02 00:03:56;;;;;;;;;;;;;;;22.12;40.44;93431.09;2043122;29;987;-75
2022/04/02 00:04:58;;;;;;;;;;;;;;;22.12;40.23;93428.41;2043832;29;1518;-75
2022/04/02 00:05:59;;;;;;;;;;;;;;;22.12;40.24;93444.47;2040488;28;1675;-75
2022/04/02 00:07:02;;;;;;;;;;;;;;;22.13;40.10;93435.38;2043360;29;1809;-76
2022/04/02 00:08:03;;;;;;;;;;;;;;;22.13;40.25;93438.03;2049209;28;1384;-74
2022/04/02 00:09:05;;;;;;;;;;;;;;;22.15;40.67;93442.34;2046175;28;1734;-75
2022/04/02 00:10:07;;;;;;;;;;;;;;;22.15;40.45;93439.66;2048365;29;1092;-76
2022/04/02 00:11:09;;;;;;;;;;;;;;;22.13;40.56;93443.38;2044129;29;1862;-73
2022/04/02 00:12:11;;;;;;;;;;;;;;;22.15;40.38;93458.41;2048816;28;1972;-76
2022/04/02 00:13:12;;;;;;;;;;;;;;;22.15;40.56;93440.47;2048164;28;1690;-72
2022/04/02 00:14:15;;;;;;;;;;;;;;;22.15;40.05;93461.06;2041350;29;1024;-70
2022/04/02 00:15:16;;;;;;;;;;;;;;;22.16;40.48;93446.63;2043174;29;1540;-75
2022/04/02 00:16:18;;;;;;;;;;;;;;;22.15;40.13;93456.53;2049670;28;1093;-74
2022/04/02 00:17:20;;;;;;;;;;;;;;;22.16;40.36;93449.28;2047778;28;1501;-76
2022/04/02 00:18:22;;;;;;;;;;;;;;;22.16;40.48;93443.94;2048132;28;1517;-75
2022/04/02 00:19:23;;;;;;;;;;;;;;;22.15;40.63;93451.16;2049570;28;1033;-73
2022/04/02 00:20:25;;;;;;;;;;;;;;;22.16;40.77;93450.09;2045552;28;1661;-75
2022/04/02 00:21:26;;;;;;;;;;;;;;;22.17;40.86;93458.91;2037030;29;1073;-70
2022/04/02 00:22:28;;;;;;;;;;;;;;;22.17;40.26;93458.91;2042047;29;1543;-75
2022/04/02 00:23:35;;;;;;;;;;;;;;;22.17;40.79;93466.94;2049679;28;1207;-76
2022/04/02 00:24:37;;;;;;;;;;;;;;;22.16;40.34;93471.50;2049044;28;1622;-76
2022/04/02 00:25:39;;;;;;;;;;;;;;;22.17;40.93;93467.78;2048978;28;1046;-76
2022/04/02 00:26:40;;;;;;;;;;;;;;;22.17;40.30;93456.25;2048353;28;1753;-76
2022/04/02 00:27:42;;;;;;;;;;;;;;;22.18;40.19;93464.03;2045208;29;1554;-75
2022/04/02 00:28:44;;;;;;;;;;;;;;;22.18;40.69;93468.56;2043593;29;1703;-69
2022/04/02 00:29:45;;;;;;;;;;;;;;;22.18;40.45;93474.72;2045105;29;1476;-76
2022/04/02 00:30:47;;;;;;;;;;;;;;;22.19;40.73;93470.19;2048728;28;1515;-74
2022/04/02 00:31:48;;;;;;;;;;;;;;;22.19;40.50;93472.84;2047632;28;1534;-77
2022/04/02 00:32:50;;;;;;;;;;;;;;;22.19;40.70;93481.69;2043329;29;1910;-77
2022/04/02 00:33:52;;;;;;;;;;;;;;;22.20;40.54;93479.84;2049400;28;1112;-77
2022/04/02 00:34:53;;;;;;;;;;;;;;;22.20;41.04;93471.81;2049460;28;1191;-73
2022/04/02 00:35:55;;;;;;;;;;;;;;;22.20;40.80;93477.16;2048514;28;1343;-74
2022/04/02 00:36:56;;;;;;;;;;;;;;;22.20;40.74;93477.16;2048162;28;1604;-68
2022/04/02 00:37:58;;;;;;;;;;;;;;;22.19;40.84;93483.56;2048902;28;1086;-69
2022/04/02 00:38:59;;;;;;;;;;;;;;;22.20;40.28;93490.53;2049179;28;1069;-69
2022/04/02 00:40:01;;;;;;;;;;;;;;;22.19;40.70;93470.97;2048015;28;1541;-70
2022/04/02 00:41:03;;;;;;;;;;;;;;;22.21;40.67;93484.09;2048067;28;1638;-68
2022/04/02 00:42:04;;;;;;;;;;;;;;;22.20;40.68;93493.22;2048602;29;1471;-68
2022/04/02 00:43:06;;;;;;;;;;;;;;;22.19;40.63;93491.56;2047623;29;1569;-69
2022/04/02 00:44:12;;;;;;;;;;;;;;;22.20;40.48;93493.22;2041697;29;1505;-66
2022/04/02 00:45:13;;;;;;;;;;;;;;;22.20;40.94;93498.56;2050033;28;1647;-67
2022/04/02 00:46:15;;;;;;;;;;;;;;;22.21;40.76;93500.16;2049642;28;1556;-69
2022/04/02 00:47:16;;;;;;;;;;;;;;;22.20;40.39;93498.56;2048887;28;1386;-69
2022/04/02 00:48:19;;;;;;;;;;;;;;;22.20;40.76;93495.88;2050030;29;1067;-68
2022/04/02 00:49:20;;;;;;;;;;;;;;;22.19;41.49;93496.94;2049125;29;1475;-68
2022/04/02 00:50:22;;;;;;;;;;;;;;;22.20;40.99;93503.91;2049128;28;1449;-69
2022/04/02 00:51:24;;;;;;;;;;;;;;;22.21;40.71;93510.84;2050414;28;1159;-74
2022/04/02 00:52:26;;;;;;;;;;;;;;;22.21;41.27;93502.84;2049490;28;1902;-74
2022/04/02 00:53:32;;;;;;;;;;;;;;;22.20;40.73;93498.56;2050382;28;1120;-76
2022/04/02 00:54:34;;;;;;;;;;;;;;;22.21;41.13;93495.59;2045722;28;1176;-75
2022/04/02 00:55:36;;;;;;;;;;;;;;;22.21;41.06;93498.28;2049573;29;1022;-72
2022/04/02 00:56:38;;;;;;;;;;;;;;;22.22;41.00;93501.75;2041819;29;1079;-76
2022/04/02 00:57:40;;;;;;;;;;;;;;;22.21;40.88;93517.00;2046885;29;1781;-74
2022/04/02 00:58:42;;;;;;;;;;;;;;;22.21;41.07;93511.66;2042128;29;1113;-74
2022/04/02 00:59:43;;;;;;;;;;;;;;;22.22;41.23;93509.78;2042486;29;1426;-77
2022/04/02 01:00:45;;;;;;;;;;;;;;;22.23;41.09;93503.38;2041845;29;1023;-75
2022/04/02 01:01:47;;;;;;;;;;;;;;;22.23;41.20;93524.78;2041853;29;989;-77
2022/04/02 01:02:48;;;;;;;;;;;;;;;22.22;41.07;93510.59;2042647;29;974;-77
2022/04/02 01:03:50;;;;;;;;;;;;;;;22.22;40.81;93502.56;2041632;29;1316;-73
2022/04/02 01:04:54;;;;;;;;;;;;;;;22.24;41.25;93510.34;2048977;28;1536;-71
2022/04/02 01:05:56;;;;;;;;;;;;;;;22.24;41.01;93507.66;2037427;29;1023;-68
2022/04/02 01:06:59;;;;;;;;;;;;;;;22.23;41.06;93504.19;2042066;29;1630;-68
2022/04/02 01:08:05;;;;;;;;;;;;;;;22.23;40.70;93508.75;2042148;29;1036;-68
2022/04/02 01:09:06;;;;;;;;;;;;;;;22.22;40.76;93507.09;2046184;29;1432;-68
2022/04/02 01:10:08;;;;;;;;;;;;;;;22.22;41.13;93501.75;2042058;29;1171;-68
2022/04/02 01:11:10;;;;;;;;;;;;;;;22.21;41.16;93492.94;2042252;29;1022;-65
2022/04/02 01:12:11;;;;;;;;;;;;;;;22.22;41.16;93491.06;2042307;29;1078;-68
2022/04/02 01:13:15;;;;;;;;;;;;;;;22.22;40.72;93485.72;2041351;29;1894;-68
2022/04/02 01:14:18;;;;;;;;;;;;;;;22.21;40.98;93482.22;2042509;29;1011;-69
2022/04/02 01:15:20;;;;;;;;;;;;;;;22.21;41.02;93478.75;2041530;29;1671;-69
2022/04/02 01:16:21;;;;;;;;;;;;;;;22.18;41.45;93480.06;2038537;29;1102;-68
2022/04/02 01:17:23;;;;;;;;;;;;;;;22.21;40.92;93494.81;2046915;29;1465;-68
2022/04/02 01:18:25;;;;;;;;;;;;;;;22.21;40.76;93505.50;2050183;28;1070;-68
2022/04/02 01:19:26;;;;;;;;;;;;;;;22.21;41.23;93497.47;2049606;28;1490;-68
2022/04/02 01:20:29;;;;;;;;;;;;;;;22.21;41.06;93497.47;2045944;28;1646;-68
2022/04/02 01:21:31;;;;;;;;;;;;;;;22.21;41.34;93500.97;2049539;28;1797;-69
2022/04/02 01:22:34;;;;;;;;;;;;;;;22.21;41.02;93498.28;2049914;28;1108;-74
2022/04/02 01:23:35;;;;;;;;;;;;;;;22.22;40.72;93501.75;2049965;28;1814;-77
2022/04/02 01:24:37;;;;;;;;;;;;;;;22.23;40.88;93490.00;2050461;28;1041;-77
2022/04/02 01:25:38;;;;;;;;;;;;;;;22.23;41.34;93495.38;2042931;28;1715;-73
2022/04/02 01:26:40;;;;;;;;;;;;;;;22.24;41.30;93491.59;2042322;29;990;-78
2022/04/02 01:27:43;;;;;;;;;;;;;;;22.25;41.09;93495.88;2040154;29;1493;-76
2022/04/02 01:28:53;;;;;;;;;;;;;;;22.24;41.26;93492.41;2041875;29;1623;-77
2022/04/02 01:29:55;;;;;;;;;;;;;;;22.24;41.36;93491.59;2042534;29;1470;-69
2022/04/02 01:30:57;;;;;;;;;;;;;;;22.26;41.24;93497.50;2042216;29;1045;-69
2022/04/02 01:31:58;;;;;;;;;;;;;;;22.26;41.17;93489.50;2042034;29;1152;-69
2022/04/02 01:33:00;;;;;;;;;;;;;;;22.26;41.00;93494.84;2042044;29;1980;-70
2022/04/02 01:34:02;;;;;;;;;;;;;;;22.25;41.26;93485.19;2042097;29;1098;-70
2022/04/02 01:35:04;;;;;;;;;;;;;;;22.25;41.32;93485.19;2041626;29;1116;-75
2022/04/02 01:36:06;;;;;;;;;;;;;;;22.25;41.26;93487.88;2042377;29;1022;-70
2022/04/02 01:37:09;;;;;;;;;;;;;;;22.26;41.34;93492.16;2047752;29;1587;-74
2022/04/02 01:38:11;;;;;;;;;;;;;;;22.26;41.49;93487.63;2049051;29;1179;-75
2022/04/02 01:39:12;;;;;;;;;;;;;;;22.27;41.68;93493.78;2044799;28;1052;-73
2022/04/02 01:40:14;;;;;;;;;;;;;;;22.27;41.56;93493.78;2050105;28;1120;-74
2022/04/02 01:41:15;;;;;;;;;;;;;;;22.28;41.38;93487.34;2050359;28;1266;-76
2022/04/02 01:42:24;;;;;;;;;;;;;;;22.28;41.53;93485.50;2048751;29;1646;-75
2022/04/02 01:43:26;;;;;;;;;;;;;;;22.28;41.20;93484.66;2049364;29;1094;-75
2022/04/02 01:44:27;;;;;;;;;;;;;;;22.29;41.48;93502.34;2049435;29;1124;-74
2022/04/02 01:45:29;;;;;;;;;;;;;;;22.29;41.73;93486.28;2049702;28;1499;-74
2022/04/02 01:46:30;;;;;;;;;;;;;;;22.29;41.60;93503.16;2049952;28;1136;-74
2022/04/02 01:47:32;;;;;;;;;;;;;;;22.31;41.47;93497.56;2049353;28;1544;-73
2022/04/02 01:48:34;;;;;;;;;;;;;;;22.30;41.70;93494.03;2049802;28;1195;-74
2022/04/02 01:49:35;;;;;;;;;;;;;;;22.30;41.77;93493.25;2045264;28;1024;-75
2022/04/02 01:50:37;;;;;;;;;;;;;;;22.30;40.95;93501.28;2048048;29;1562;-74
2022/04/02 01:51:38;;;;;;;;;;;;;;;22.31;41.16;93500.22;2049427;28;1125;-75
2022/04/02 01:52:40;;;;;;;;;;;;;;;22.31;41.44;93505.59;2043223;28;1640;-75
2022/04/02 01:53:42;;;;;;;;;;;;;;;22.30;41.20;93504.75;2041200;29;1981;-74
2022/04/02 01:54:44;;;;;;;;;;;;;;;22.31;41.51;93505.59;2041453;29;1156;-75
2022/04/02 01:55:46;;;;;;;;;;;;;;;22.31;41.11;93502.91;2042183;29;1494;-75
2022/04/02 01:56:48;;;;;;;;;;;;;;;22.31;41.37;93513.59;2041722;29;987;-75
2022/04/02 01:57:49;;;;;;;;;;;;;;;22.31;41.38;93516.28;2046840;29;1502;-75
2022/04/02 01:58:51;;;;;;;;;;;;;;;22.31;41.33;93518.97;2048973;29;1011;-75
2022/04/02 01:59:53;;;;;;;;;;;;;;;22.31;41.36;93525.09;2049478;29;1006;-75
2022/04/02 02:00:54;;;;;;;;;;;;;;;22.31;41.31;93517.09;2043685;28;1714;-75
2022/04/02 02:01:56;;;;;;;;;;;;;;;22.31;41.31;93522.44;2049646;29;1188;-75
2022/04/02 02:02:58;;;;;;;;;;;;;;;22.32;41.32;93517.88;2043793;28;1693;-72
2022/04/02 02:04:00;;;;;;;;;;;;;;;22.32;41.25;93523.22;2042120;29;1448;-76
2022/04/02 02:05:01;;;;;;;;;;;;;;;22.32;41.20;93513.34;2048880;29;1680;-75
2022/04/02 02:06:03;;;;;;;;;;;;;;;22.33;41.55;93522.16;2042977;28;1421;-76
2022/04/02 02:07:06;;;;;;;;;;;;;;;22.32;41.46;93528.59;2049569;28;1025;-75
2022/04/02 02:08:08;;;;;;;;;;;;;;;22.32;41.56;93528.59;2047664;29;1466;-75
2022/04/02 02:09:10;;;;;;;;;;;;;;;22.34;41.50;93518.44;2049550;29;1669;-74
2022/04/02 02:10:11;;;;;;;;;;;;;;;22.34;41.46;93521.13;2048722;28;1613;-75
2022/04/02 02:11:13;;;;;;;;;;;;;;;22.34;41.42;93513.09;2049278;29;1708;-77
2022/04/02 02:12:15;;;;;;;;;;;;;;;22.33;41.59;93519.47;2044076;28;1055;-76
2022/04/02 02:13:17;;;;;;;;;;;;;;;22.34;41.51;93510.41;2048872;29;1910;-75
2022/04/02 02:14:19;;;;;;;;;;;;;;;22.33;41.43;93506.91;2049142;28;1262;-76
2022/04/02 02:15:22;;;;;;;;;;;;;;;22.33;41.18;93504.22;2049179;29;1041;-76
2022/04/02 02:16:24;;;;;;;;;;;;;;;22.33;41.51;93495.41;2049618;28;1742;-76
2022/04/02 02:17:25;;;;;;;;;;;;;;;22.33;41.17;93498.06;2049284;29;1177;-76
2022/04/02 02:18:27;;;;;;;;;;;;;;;22.33;41.53;93514.94;2048952;29;1140;-75
2022/04/02 02:19:29;;;;;;;;;;;;;;;22.35;41.60;93512.00;2049676;28;974;-76
2022/04/02 02:20:31;;;;;;;;;;;;;;;22.33;41.46;93500.75;2046035;28;1679;-77
2022/04/02 02:21:32;;;;;;;;;;;;;;;22.34;41.70;93507.75;2047562;29;1116;-66
2022/04/02 02:22:34;;;;;;;;;;;;;;;22.34;41.83;93508.53;2045198;28;1038;-69
2022/04/02 02:23:36;;;;;;;;;;;;;;;22.34;41.99;93499.72;2048883;29;1084;-69
2022/04/02 02:24:37;;;;;;;;;;;;;;;22.34;41.77;93505.06;2049188;29;1040;-70
2022/04/02 02:25:39;;;;;;;;;;;;;;;22.33;41.41;93490.84;2049656;28;1001;-68
2022/04/02 02:26:41;;;;;;;;;;;;;;;22.33;41.43;93498.06;2049345;28;1028;-69
2022/04/02 02:27:44;;;;;;;;;;;;;;;22.33;41.55;93504.22;2047095;28;1472;-69
2022/04/02 02:28:45;;;;;;;;;;;;;;;22.32;41.78;93497.28;2041587;29;1028;-69
2022/04/02 02:29:47;;;;;;;;;;;;;;;22.33;41.28;93500.75;2043203;29;1483;-69
2022/04/02 02:30:48;;;;;;;;;;;;;;;22.33;41.81;93495.41;2042624;29;1658;-68
2022/04/02 02:31:50;;;;;;;;;;;;;;;22.32;41.40;93497.28;2041858;29;1642;-69
2022/04/02 02:35:49;;;;;;;;;;;;;;;22.32;41.57;93496.47;2047498;29;1678;-69
2022/04/02 02:35:49;;;;;;;;;;;;;;;22.32;41.61;93501.81;2049606;28;1117;-69
2022/04/02 02:36:51;;;;;;;;;;;;;;;22.32;41.89;93491.13;2049449;28;1084;-69
2022/04/02 02:38:02;;;;;;;;;;;;;;;22.32;41.41;93480.41;2048295;28;1146;-68
2022/04/02 02:39:04;;;;;;;;;;;;;;;22.31;41.59;93481.50;2040978;29;1066;-69
2022/04/02 02:40:06;;;;;;;;;;;;;;;22.31;41.39;93486.84;2041493;29;1644;-69
2022/04/02 02:41:10;;;;;;;;;;;;;;;22.32;41.66;93497.28;2041323;29;1105;-69
2022/04/02 02:42:12;;;;;;;;;;;;;;;22.31;41.53;93489.53;2041260;29;1093;-72
2022/04/02 02:43:14;;;;;;;;;;;;;;;22.33;41.63;93490.06;2040936;29;1093;-70
2022/04/02 02:44:16;;;;;;;;;;;;;;;22.32;41.62;93481.22;2040834;29;1077;-71
2022/04/02 02:45:17;;;;;;;;;;;;;;;22.33;42.07;93492.72;2037798;29;1522;-69
2022/04/02 02:46:19;;;;;;;;;;;;;;;22.32;41.76;93493.81;2049506;28;1066;-69
2022/04/02 02:47:21;;;;;;;;;;;;;;;22.33;41.77;93492.72;2047995;29;1706;-72
2022/04/02 02:48:22;;;;;;;;;;;;;;;22.34;41.79;93497.84;2042136;29;1718;-73
2022/04/02 02:49:24;;;;;;;;;;;;;;;22.33;41.42;93484.69;2042843;29;1691;-73
2022/04/02 02:50:26;;;;;;;;;;;;;;;22.32;41.80;93465.16;2049057;28;993;-73
2022/04/02 02:51:27;;;;;;;;;;;;;;;22.34;41.52;93467.59;2055960;28;1434;-73
2022/04/02 02:52:29;;;;;;;;;;;;;;;22.35;41.72;93479.91;2057251;28;1116;-73
2022/04/02 02:53:30;;;;;;;;;;;;;;;22.34;41.84;93472.94;2057378;28;1907;-71
2022/04/02 02:54:32;;;;;;;;;;;;;;;22.33;41.53;93463.28;2057485;28;1002;-70
2022/04/02 02:55:33;;;;;;;;;;;;;;;22.34;41.59;93470.28;2040343;28;1893;-73
2022/04/02 02:56:35;;;;;;;;;;;;;;;22.34;41.78;93467.59;2040753;29;1160;-72
2022/04/02 02:57:37;;;;;;;;;;;;;;;22.34;41.48;93472.94;2041314;29;1089;-69
2022/04/02 02:58:39;;;;;;;;;;;;;;;22.35;41.54;93467.31;2056652;28;1673;-70
2022/04/02 02:59:40;;;;;;;;;;;;;;;22.34;41.30;93462.25;2056262;28;1639;-68
2022/04/02 03:00:43;;;;;;;;;;;;;;;22.33;41.61;93440.00;2049414;28;998;-69
2022/04/02 03:01:44;;;;;;;;;;;;;;;22.34;41.47;93440.84;2049325;28;964;-70
2022/04/02 03:02:46;;;;;;;;;;;;;;;22.35;41.43;93437.09;2048943;28;1108;-69
2022/04/02 03:03:48;;;;;;;;;;;;;;;22.34;41.52;93441.63;2048483;28;1791;-70
2022/04/02 03:04:49;;;;;;;;;;;;;;;22.34;41.62;93448.88;2048978;28;1557;-70
2022/04/02 03:05:51;;;;;;;;;;;;;;;22.33;41.82;93453.38;2049361;28;1120;-70
2022/04/02 03:06:52;;;;;;;;;;;;;;;22.34;41.58;93462.25;2044668;28;1213;-70
2022/04/02 03:07:55;;;;;;;;;;;;;;;22.33;41.59;93464.09;2049073;28;1098;-70
2022/04/02 03:08:56;;;;;;;;;;;;;;;22.34;41.55;93467.59;2049361;28;999;-69
2022/04/02 03:10:00;;;;;;;;;;;;;;;22.34;41.35;93481.78;2048152;28;1519;-71
2022/04/02 03:11:02;;;;;;;;;;;;;;;22.34;41.50;93479.09;2048685;28;1476;-69
2022/04/02 03:12:03;;;;;;;;;;;;;;;22.34;41.41;93480.97;2048400;28;1524;-70
2022/04/02 03:13:06;;;;;;;;;;;;;;;22.34;41.42;93484.44;2044990;28;1635;-70
2022/04/02 03:14:08;;;;;;;;;;;;;;;22.34;41.62;93489.81;2049345;28;1985;-70
2022/04/02 03:15:10;;;;;;;;;;;;;;;22.34;41.60;93495.16;2054641;28;1455;-70
2022/04/02 03:16:12;;;;;;;;;;;;;;;22.35;41.60;93501.31;2049249;28;1164;-66
2022/04/02 03:17:14;;;;;;;;;;;;;;;22.35;41.62;93512.00;2049388;28;1086;-70
2022/04/02 03:18:16;;;;;;;;;;;;;;;22.34;41.76;93513.09;2043954;28;1183;-70
2022/04/02 03:19:17;;;;;;;;;;;;;;;22.34;41.70;93529.94;2049501;28;1661;-70
2022/04/02 03:20:20;;;;;;;;;;;;;;;22.28;41.66;93524.81;2047637;28;1521;-70
2022/04/02 03:21:21;;;;;;;;;;;;;;;22.34;41.64;93539.84;2049022;29;1137;-70
2022/04/02 03:22:23;;;;;;;;;;;;;;;22.33;41.61;93535.53;2049364;28;1035;-68
2022/04/02 03:23:25;;;;;;;;;;;;;;;22.33;41.56;93532.88;2049257;28;1077;-71
2022/04/02 03:24:27;;;;;;;;;;;;;;;22.34;41.61;93531.81;2048591;28;1584;-71
2022/04/02 03:25:29;;;;;;;;;;;;;;;22.33;41.77;93517.59;2047695;29;1552;-68
2022/04/02 03:26:30;;;;;;;;;;;;;;;22.33;41.91;93516.81;2049038;28;1023;-71
2022/04/02 03:27:32;;;;;;;;;;;;;;;22.33;41.64;93508.78;2048311;28;1756;-67
2022/04/02 03:28:33;;;;;;;;;;;;;;;22.33;41.97;93503.44;2046789;28;1097;-70
2022/04/02 03:29:35;;;;;;;;;;;;;;;22.33;41.63;93504.22;2046291;28;1522;-66
2022/04/02 03:30:38;;;;;;;;;;;;;;;22.33;41.72;93511.44;2045953;29;1441;-70
2022/04/02 03:31:39;;;;;;;;;;;;;;;22.33;41.89;93509.59;2049511;28;1191;-67
2022/04/02 03:32:41;;;;;;;;;;;;;;;22.34;41.65;93515.75;2049218;28;1062;-66
2022/04/02 03:33:43;;;;;;;;;;;;;;;22.34;41.59;93510.41;2048188;29;1532;-69
2022/04/02 03:34:44;;;;;;;;;;;;;;;22.34;41.40;93515.75;2049178;28;2009;-69
2022/04/02 03:35:46;;;;;;;;;;;;;;;22.33;41.72;93508.78;2049196;28;1022;-70
2022/04/02 03:36:48;;;;;;;;;;;;;;;22.32;41.83;93507.97;2049099;28;1183;-69
2022/04/02 03:37:50;;;;;;;;;;;;;;;22.32;41.39;93505.31;2049331;28;1031;-68
2022/04/02 03:38:52;;;;;;;;;;;;;;;22.33;41.73;93504.22;2049149;28;1000;-66
2022/04/02 03:39:54;;;;;;;;;;;;;;;22.34;41.07;93511.22;2042946;28;1687;-71
2022/04/02 03:40:56;;;;;;;;;;;;;;;22.34;41.52;93505.06;2041416;28;1535;-68
2022/04/02 03:41:58;;;;;;;;;;;;;;;22.32;41.63;93497.28;2040983;29;1018;-70
2022/04/02 03:42:59;;;;;;;;;;;;;;;22.33;41.69;93482.03;2045791;29;1512;-70
2022/04/02 03:44:01;;;;;;;;;;;;;;;22.33;41.33;93482.03;2045486;28;1650;-68
2022/04/02 03:45:06;;;;;;;;;;;;;;;22.33;41.69;93477.47;2049311;28;1163;-69
2022/04/02 03:47:29;;;;;;;;;;;;;;;22.33;41.85;93484.69;2045125;29;1879;-71
2022/04/02 03:48:30;;;;;;;;;;;;;;;22.33;42.13;93487.38;2040603;29;1124;-68
2022/04/02 03:49:32;;;;;;;;;;;;;;;22.34;41.85;93499.72;2041547;29;1529;-71
2022/04/02 03:50:33;;;;;;;;;;;;;;;22.35;41.66;93512.00;2043550;28;1025;-70
2022/04/02 03:51:35;;;;;;;;;;;;;;;22.34;41.73;93516.56;2048145;29;1123;-69
2022/04/02 03:52:36;;;;;;;;;;;;;;;22.34;41.88;93526.47;2049050;28;1077;-69
2022/04/02 03:53:38;;;;;;;;;;;;;;;22.34;41.75;93540.66;2048488;29;1023;-70
2022/04/02 03:54:40;;;;;;;;;;;;;;;22.33;41.89;93535.53;2040656;29;1903;-70
2022/04/02 03:55:41;;;;;;;;;;;;;;;22.34;41.71;93521.13;2040011;29;1011;-71
2022/04/02 03:56:43;;;;;;;;;;;;;;;22.34;41.79;93521.91;2042129;29;1503;-70
2022/04/02 03:57:47;;;;;;;;;;;;;;;22.34;41.62;93505.06;2048393;29;1042;-70
2022/04/02 03:58:49;;;;;;;;;;;;;;;22.32;41.57;93497.28;2048849;28;1179;-70
2022/04/02 03:59:51;;;;;;;;;;;;;;;22.33;41.62;93488.19;2047942;28;2088;-69
2022/04/02 04:00:53;;;;;;;;;;;;;;;22.34;41.44;93483.66;2048952;28;1062;-68
2022/04/02 04:01:54;;;;;;;;;;;;;;;22.35;41.61;93498.63;2044155;28;1018;-70
2022/04/02 04:02:56;;;;;;;;;;;;;;;22.34;41.77;93510.41;2048358;28;1151;-70
2022/04/02 04:03:58;;;;;;;;;;;;;;;22.35;41.82;93517.38;2048512;28;1578;-67
2022/04/02 04:04:59;;;;;;;;;;;;;;;22.34;41.61;93526.47;2048617;29;1649;-68
2022/04/02 04:06:01;;;;;;;;;;;;;;;22.35;42.17;93539.56;2041470;28;1164;-70
2022/04/02 04:07:03;;;;;;;;;;;;;;;22.35;41.46;93534.22;2040462;29;1014;-70
2022/04/02 04:08:05;;;;;;;;;;;;;;;22.35;41.58;93525.38;2040251;29;964;-65
2022/04/02 04:09:06;;;;;;;;;;;;;;;22.35;41.51;93533.41;2042161;29;1518;-71
2022/04/02 04:10:08;;;;;;;;;;;;;;;22.35;41.74;93550.28;2046533;29;1491;-70
2022/04/02 04:11:10;;;;;;;;;;;;;;;22.34;41.55;93551.34;2048813;28;1019;-70
2022/04/02 04:12:14;;;;;;;;;;;;;;;22.34;41.63;93542.53;2044395;28;2141;-68
2022/04/02 04:13:16;;;;;;;;;;;;;;;22.34;41.61;93548.66;2048618;28;1266;-71
2022/04/02 04:14:19;;;;;;;;;;;;;;;22.36;41.57;93556.44;2048042;28;1883;-67
2022/04/02 04:15:21;;;;;;;;;;;;;;;22.35;41.65;93552.16;2046025;29;1734;-69
2022/04/02 04:16:23;;;;;;;;;;;;;;;22.34;41.66;93547.88;2048134;29;1137;-67
2022/04/02 04:17:24;;;;;;;;;;;;;;;22.34;41.95;93555.91;2048449;28;1157;-69
2022/04/02 04:18:26;;;;;;;;;;;;;;;22.34;41.80;93570.06;2047946;28;1617;-70
2022/04/02 04:19:28;;;;;;;;;;;;;;;22.34;41.76;93582.66;2047478;29;1497;-65
2022/04/02 04:20:32;;;;;;;;;;;;;;;22.34;41.97;93585.34;2046822;29;1758;-70
2022/04/02 04:21:36;;;;;;;;;;;;;;;22.35;41.72;93594.97;2048960;28;1180;-70
2022/04/02 04:22:38;;;;;;;;;;;;;;;22.34;41.71;93594.16;2048982;28;1075;-70
2022/04/02 04:23:39;;;;;;;;;;;;;;;22.34;41.84;93588.00;2044031;28;1053;-67
2022/04/02 04:24:41;;;;;;;;;;;;;;;22.35;41.71;93586.94;2047992;28;1525;-70
2022/04/02 04:25:43;;;;;;;;;;;;;;;22.34;41.88;93579.97;2043056;28;1810;-70
2022/04/02 04:26:45;;;;;;;;;;;;;;;22.34;41.69;93572.75;2040713;29;970;-69
2022/04/02 04:27:46;;;;;;;;;;;;;;;22.35;41.98;93584.25;2040949;29;1090;-69
2022/04/02 04:28:48;;;;;;;;;;;;;;;22.34;41.77;93579.97;2040830;29;1078;-70
2022/04/02 04:29:49;;;;;;;;;;;;;;;22.35;41.56;93586.94;2042029;29;1524;-69
2022/04/02 04:30:51;;;;;;;;;;;;;;;22.35;41.70;93594.97;2040576;29;1061;-70
2022/04/02 04:31:52;;;;;;;;;;;;;;;22.36;41.83;93607.28;2042471;29;1494;-67
2022/04/02 04:32:55;;;;;;;;;;;;;;;22.36;42.00;93604.59;2048213;28;1176;-69
2022/04/02 04:34:02;;;;;;;;;;;;;;;22.36;41.82;93601.91;2047845;28;1518;-69
2022/04/02 04:35:04;;;;;;;;;;;;;;;22.37;41.76;93600.03;2041706;28;1985;-68
2022/04/02 04:36:05;;;;;;;;;;;;;;;22.38;41.60;93602.47;2040686;29;1687;-68
2022/04/02 04:37:07;;;;;;;;;;;;;;;22.45;41.77;93607.59;2045830;29;1404;-69
2022/04/02 04:38:09;;;;;;;;;;;;;;;21.26;31.29;93596.09;2048643;28;962;-70
2022/04/02 04:39:10;;;;;;;;;;;;;;;19.79;32.65;93607.84;2048138;28;1039;-69
2022/04/02 04:40:12;;;;;;;;;;;;;;;19.13;33.47;93606.59;2046332;29;1538;-69
2022/04/02 04:41:14;;;;;;;;;;;;;;;18.58;34.18;93625.66;2048394;28;997;-68
2022/04/02 04:42:16;;;;;;;;;;;;;;;18.26;34.08;93623.34;2048746;28;1213;-69
2022/04/02 04:43:18;;;;;;;;;;;;;;;18.09;33.98;93615.25;2048726;28;1117;-69
2022/04/02 04:44:19;;;;;;;;;;;;;;;18.27;34.13;93623.13;2048023;28;1459;-70
2022/04/02 04:45:21;;;;;;;;;;;;;;;18.35;33.88;93619.28;2043768;28;1493;-68
2022/04/02 04:46:22;;;;;;;;;;;;;;;18.21;33.96;93620.56;2048279;28;1189;-70
2022/04/02 04:47:24;;;;;;;;;;;;;;;18.12;33.29;93621.94;2047498;28;1463;-69
2022/04/02 04:48:25;;;;;;;;;;;;;;;17.94;33.48;93628.97;2045146;28;1999;-68
2022/04/02 04:49:27;;;;;;;;;;;;;;;17.81;33.72;93627.34;2042225;29;1408;-69
2022/04/02 04:50:28;;;;;;;;;;;;;;;17.71;33.01;93631.56;2047416;29;1533;-70
2022/04/02 04:51:30;;;;;;;;;;;;;;;17.89;33.22;93634.16;2047209;28;1695;-70
2022/04/02 04:52:32;;;;;;;;;;;;;;;17.88;33.50;93632.56;2048850;28;1097;-66
2022/04/02 04:53:34;;;;;;;;;;;;;;;18.06;33.76;93627.13;2048783;28;1095;-70
2022/04/02 04:54:35;;;;;;;;;;;;;;;17.84;33.49;93631.38;2048244;28;1983;-69
2022/04/02 04:55:37;;;;;;;;;;;;;;;18.00;33.63;93638.69;2048868;28;1125;-70
2022/04/02 04:56:39;;;;;;;;;;;;;;;17.77;33.25;93650.09;2043775;28;1066;-70
2022/04/02 04:57:40;;;;;;;;;;;;;;;17.70;33.70;93637.91;2048714;28;1105;-70
2022/04/02 04:58:42;;;;;;;;;;;;;;;17.69;33.57;93630.97;2048753;28;1218;-69
2022/04/02 04:59:43;;;;;;;;;;;;;;;17.70;33.45;93635.25;2047790;28;1515;-67
2022/04/02 05:00:45;;;;;;;;;;;;;;;17.58;33.72;93633.34;2048135;28;2124;-70
2022/04/02 05:01:47;;;;;;;;;;;;;;;17.68;33.62;93627.50;2047505;28;1553;-66
2022/04/02 05:02:48;;;;;;;;;;;;;;;17.61;33.50;93624.97;2047664;29;1746;-69
2022/04/02 05:03:50;;;;;;;;;;;;;;;17.66;33.26;93630.38;2048479;29;1136;-69
2022/04/02 05:04:52;;;;;;;;;;;;;;;17.47;33.38;93625.34;2047740;28;1547;-70
2022/04/02 05:05:54;;;;;;;;;;;;;;;17.25;33.55;93619.75;2048952;28;1082;-69
2022/04/02 05:06:57;;;;;;;;;;;;;;;17.15;33.74;93614.97;2048425;28;1715;-66
2022/04/02 05:07:59;;;;;;;;;;;;;;;17.42;33.35;93612.78;2043754;28;1035;-69
2022/04/02 05:09:02;;;;;;;;;;;;;;;17.58;33.26;93612.09;2048055;29;1035;-64
2022/04/02 05:10:03;;;;;;;;;;;;;;;17.59;33.28;93602.31;2046800;29;1505;-68
2022/04/02 05:11:05;;;;;;;;;;;;;;;17.38;33.08;93607.09;2046609;28;1640;-69
2022/04/02 05:12:07;;;;;;;;;;;;;;;17.37;33.04;93609.97;2047483;28;1419;-69
2022/04/02 05:13:10;;;;;;;;;;;;;;;17.54;32.82;93597.69;2053781;28;1054;-71
2022/04/02 05:14:13;;;;;;;;;;;;;;;17.73;32.59;93613.56;2048679;28;1152;-66
2022/04/02 05:15:15;;;;;;;;;;;;;;;17.78;31.97;93611.84;2047962;28;1918;-69
2022/04/02 05:16:17;;;;;;;;;;;;;;;17.71;31.49;93610.31;2048215;28;2075;-69
2022/04/02 05:17:19;;;;;;;;;;;;;;;17.66;31.84;93614.44;2048314;28;1184;-69
2022/04/02 05:18:20;;;;;;;;;;;;;;;17.33;31.86;93608.81;2043588;28;1691;-69
2022/04/02 05:19:22;;;;;;;;;;;;;;;17.33;31.68;93614.13;2048422;28;1299;-70
2022/04/02 05:20:24;;;;;;;;;;;;;;;17.43;31.38;93609.06;2047126;29;1506;-69
2022/04/02 05:21:25;;;;;;;;;;;;;;;17.51;31.26;93605.28;2047573;29;1570;-68
2022/04/02 05:22:27;;;;;;;;;;;;;;;17.49;30.15;93605.50;2046699;28;1421;-69
2022/04/02 05:23:29;;;;;;;;;;;;;;;17.57;30.84;93615.00;2047791;28;1430;-69
2022/04/02 05:24:30;;;;;;;;;;;;;;;17.61;30.52;93600.22;2047513;28;1542;-66
2022/04/02 05:25:35;;;;;;;;;;;;;;;17.63;30.67;93604.28;2055916;28;1121;-65
2022/04/02 05:26:37;;;;;;;;;;;;;;;17.65;30.34;93604.88;2041907;28;1709;-69
2022/04/02 05:27:39;;;;;;;;;;;;;;;17.61;30.81;93602.88;2048650;29;938;-69
2022/04/02 05:28:40;;;;;;;;;;;;;;;17.57;30.27;93607.03;2049502;28;1697;-69
2022/04/02 05:29:42;;;;;;;;;;;;;;;17.73;30.66;93618.88;2044528;28;1608;-66
2022/04/02 05:30:43;;;;;;;;;;;;;;;17.76;30.18;93623.75;2049010;28;1504;-68